Time;durP1;ratioP1;P1;durP2;ratioP2;P2;SDS_P1;SDS_P2;PMS_P1;PMS_P2;Temp;Humidity;BMP_temperature;BMP_pressure;BME280_temperature;BME280_humidity;BME280_pressure;Samples;Min_cycle;Max_cycle;Signal;HPM_P1;HPM_P2
2023/05/26 00:00:09;;;;;;;2.38;1.98;;;13.50;99.90;;;;;;4994165;28;20613;-62
2023/05/26 00:02:39;;;;;;;1.55;1.00;;;13.50;99.90;;;;;;4993975;28;20205;-63
2023/05/26 00:05:08;;;;;;;1.45;1.35;;;13.40;99.90;;;;;;4994398;28;20252;-63
2023/05/26 00:07:39;;;;;;;1.20;1.10;;;13.40;99.90;;;;;;4993798;28;20292;-64
2023/05/26 00:10:08;;;;;;;1.27;1.17;;;13.50;99.90;;;;;;4994188;28;20257;-64
2023/05/26 00:12:38;;;;;;;1.33;1.23;;;13.50;99.90;;;;;;4988845;28;20280;-63
2023/05/26 00:15:07;;;;;;;1.25;0.80;;;13.40;99.90;;;;;;4982489;28;20843;-63
2023/05/26 00:17:36;;;;;;;1.45;1.15;;;13.40;99.90;;;;;;4990423;28;20216;-64
2023/05/26 00:20:07;;;;;;;1.63;1.48;;;13.40;99.90;;;;;;4992012;28;20210;-63
2023/05/26 00:22:35;;;;;;;1.20;0.93;;;13.30;99.90;;;;;;4992705;28;20207;-64
2023/05/26 00:25:04;;;;;;;1.40;1.20;;;13.30;99.90;;;;;;4989092;28;20229;-64
2023/05/26 00:27:31;;;;;;;0.95;0.90;;;13.20;99.90;;;;;;4991510;28;20669;-63
2023/05/26 00:30:01;;;;;;;0.80;0.70;;;13.30;99.90;;;;;;4990201;28;20206;-63
2023/05/26 00:32:29;;;;;;;1.00;0.90;;;13.30;99.90;;;;;;4992765;28;20217;-63
2023/05/26 00:34:56;;;;;;;3.30;1.80;;;13.30;99.90;;;;;;4992580;28;20198;-63
2023/05/26 00:37:25;;;;;;;1.52;1.42;;;13.20;99.90;;;;;;4992172;28;20210;-63
2023/05/26 00:39:52;;;;;;;1.08;0.98;;;13.20;99.90;;;;;;4988734;28;20230;-63
2023/05/26 00:42:21;;;;;;;1.15;0.80;;;13.20;99.90;;;;;;4991255;28;20206;-63
2023/05/26 00:44:52;;;;;;;0.90;0.90;;;13.20;99.90;;;;;;4990650;28;20637;-63
2023/05/26 00:47:21;;;;;;;0.60;0.55;;;13.10;99.90;;;;;;4990650;28;20260;-63
2023/05/26 00:49:50;;;;;;;1.50;1.40;;;13.10;99.90;;;;;;4988694;28;20272;-63
2023/05/26 00:52:20;;;;;;;1.10;1.00;;;13.10;99.90;;;;;;4991505;28;20305;-63
2023/05/26 00:54:49;;;;;;;1.40;0.95;;;12.90;99.90;;;;;;4990555;28;20202;-63
2023/05/26 00:57:17;;;;;;;2.50;1.40;;;12.80;99.90;;;;;;4991283;28;20198;-63
2023/05/26 00:59:45;;;;;;;1.27;1.17;;;12.90;99.90;;;;;;4990545;28;20705;-63
2023/05/26 01:02:14;;;;;;;1.42;1.00;;;12.90;99.90;;;;;;4989803;28;20202;-63
2023/05/26 01:04:44;;;;;;;1.38;1.27;;;12.90;99.90;;;;;;4984885;28;20677;-64
2023/05/26 01:07:13;;;;;;;1.00;0.90;;;13.00;99.90;;;;;;4981049;28;20244;-63
2023/05/26 01:09:41;;;;;;;2.10;1.00;;;12.90;99.90;;;;;;4984790;28;20229;-63
2023/05/26 01:12:14;;;;;;;1.10;1.10;;;12.80;99.90;;;;;;4992909;28;20202;-64
2023/05/26 01:14:47;;;;;;;1.02;0.90;;;12.80;99.90;;;;;;4992578;28;20210;-64
2023/05/26 01:17:23;;;;;;;0.80;0.80;;;12.90;99.90;;;;;;4986355;28;20209;-64
2023/05/26 01:20:07;;;;;;;1.25;1.00;;;13.00;99.90;;;;;;4977414;28;20228;-63
2023/05/26 01:22:52;;;;;;;1.70;1.60;;;12.90;99.90;;;;;;4989360;28;20221;-64
2023/05/26 01:25:31;;;;;;;1.40;0.98;;;13.00;99.90;;;;;;4984512;28;20585;-65
2023/05/26 01:28:12;;;;;;;1.73;1.00;;;12.90;99.90;;;;;;4987790;28;20724;-64
2023/05/26 01:30:42;;;;;;;1.33;1.08;;;12.80;99.90;;;;;;4987517;28;20288;-64
2023/05/26 01:33:10;;;;;;;1.35;1.25;;;12.80;99.90;;;;;;4989048;28;20229;-65
2023/05/26 01:35:38;;;;;;;1.25;0.90;;;12.80;99.90;;;;;;4989397;28;20210;-64
2023/05/26 01:38:07;;;;;;;0.80;0.80;;;12.80;99.90;;;;;;4982242;28;20230;-64
2023/05/26 01:40:38;;;;;;;1.20;1.08;;;12.80;99.90;;;;;;4986811;28;20210;-64
2023/05/26 01:43:14;;;;;;;2.05;1.10;;;12.80;99.90;;;;;;4989147;28;20198;-64
2023/05/26 01:45:47;;;;;;;1.10;0.95;;;12.70;99.90;;;;;;4984909;28;20268;-64
2023/05/26 01:48:17;;;;;;;1.77;1.20;;;12.70;99.90;;;;;;4989313;28;20241;-65
2023/05/26 01:50:51;;;;;;;4.50;1.23;;;12.70;99.90;;;;;;4990146;28;20550;-64
2023/05/26 01:53:21;;;;;;;1.90;1.00;;;12.80;99.90;;;;;;4991003;28;20218;-64
2023/05/26 01:55:52;;;;;;;1.17;1.08;;;12.80;99.90;;;;;;4989349;28;20206;-64
2023/05/26 01:58:23;;;;;;;2.08;1.52;;;12.80;99.90;;;;;;4989661;28;20218;-64
2023/05/26 02:00:52;;;;;;;0.93;0.80;;;12.80;99.90;;;;;;4988140;28;20587;-64
2023/05/26 02:03:20;;;;;;;0.82;0.82;;;12.80;99.90;;;;;;4990108;28;20228;-63
2023/05/26 02:05:48;;;;;;;1.05;0.98;;;12.90;99.90;;;;;;4987416;28;20703;-63
2023/05/26 02:08:16;;;;;;;1.02;0.93;;;13.00;99.90;;;;;;4990197;28;20229;-63
2023/05/26 02:10:44;;;;;;;1.50;1.38;;;12.90;99.90;;;;;;4989050;28;20285;-63
2023/05/26 02:13:12;;;;;;;0.80;0.70;;;13.00;99.90;;;;;;4988841;28;20264;-63
2023/05/26 02:15:42;;;;;;;1.25;1.15;;;13.00;99.90;;;;;;4990922;28;20225;-63
2023/05/26 02:18:10;;;;;;;2.33;2.13;;;13.00;99.90;;;;;;4989688;28;20221;-63
2023/05/26 02:20:38;;;;;;;1.63;1.52;;;12.90;99.90;;;;;;4987197;28;20214;-63
2023/05/26 02:23:06;;;;;;;1.88;0.90;;;12.80;99.90;;;;;;4983635;28;20696;-62
2023/05/26 02:25:34;;;;;;;1.13;1.00;;;12.70;99.90;;;;;;4988155;28;20231;-62
2023/05/26 02:28:02;;;;;;;0.98;0.90;;;12.60;99.90;;;;;;4986077;28;20237;-63
2023/05/26 02:30:30;;;;;;;1.90;1.23;;;12.50;99.90;;;;;;4987521;28;20224;-64
2023/05/26 02:33:00;;;;;;;1.75;1.05;;;12.50;99.90;;;;;;4987559;28;20673;-64
2023/05/26 02:35:28;;;;;;;1.45;1.35;;;12.50;99.90;;;;;;4985985;28;20205;-64
2023/05/26 02:37:56;;;;;;;1.33;0.93;;;12.50;99.90;;;;;;4985836;28;20322;-64
2023/05/26 02:40:24;;;;;;;1.35;1.00;;;12.60;99.90;;;;;;4989116;28;20206;-64
2023/05/26 02:42:52;;;;;;;3.88;1.40;;;12.60;99.90;;;;;;4989537;28;20206;-64
2023/05/26 02:45:20;;;;;;;2.13;1.33;;;12.50;99.90;;;;;;4989773;28;20286;-64
2023/05/26 02:47:48;;;;;;;0.95;0.90;;;12.50;99.90;;;;;;4990074;28;20225;-64
2023/05/26 02:50:18;;;;;;;1.10;1.00;;;12.60;99.90;;;;;;4990884;28;20225;-64
2023/05/26 02:52:46;;;;;;;1.45;1.25;;;12.70;99.90;;;;;;4989186;28;20213;-64
2023/05/26 02:55:13;;;;;;;1.63;1.52;;;12.70;99.90;;;;;;4986055;28;20293;-64
2023/05/26 02:57:41;;;;;;;2.22;1.60;;;12.80;99.90;;;;;;4989352;28;20585;-64
2023/05/26 03:00:12;;;;;;;1.45;1.27;;;12.70;99.90;;;;;;4989012;28;20260;-65
2023/05/26 03:02:40;;;;;;;1.60;1.15;;;12.70;99.90;;;;;;4988239;28;20206;-64
2023/05/26 03:05:09;;;;;;;0.90;0.90;;;12.60;99.90;;;;;;4986002;28;20827;-64
2023/05/26 03:07:38;;;;;;;1.00;0.93;;;12.60;99.90;;;;;;4990416;28;20240;-64
2023/05/26 03:10:06;;;;;;;2.78;1.38;;;12.50;99.90;;;;;;4990945;28;20450;-64
2023/05/26 03:12:34;;;;;;;1.45;1.35;;;12.40;99.90;;;;;;4987360;28;20201;-64
2023/05/26 03:15:03;;;;;;;1.55;1.10;;;12.40;99.90;;;;;;4987670;28;20221;-64
2023/05/26 03:17:32;;;;;;;1.50;1.27;;;12.30;99.90;;;;;;4988394;28;20221;-64
2023/05/26 03:19:59;;;;;;;1.17;1.08;;;12.20;99.90;;;;;;4992271;28;20238;-64
2023/05/26 03:22:27;;;;;;;1.30;1.20;;;12.10;99.90;;;;;;4991865;28;20214;-65
2023/05/26 03:25:17;;;;;;;1.35;1.05;;;12.30;99.90;;;;;;4989579;28;20281;-65
2023/05/26 03:27:45;;;;;;;1.35;1.25;;;12.30;99.90;;;;;;4994361;28;20205;-65
2023/05/26 03:30:13;;;;;;;1.20;1.10;;;12.50;99.90;;;;;;4991290;28;20213;-65
2023/05/26 03:32:42;;;;;;;1.10;0.98;;;12.50;99.90;;;;;;4986465;28;20624;-65
2023/05/26 03:35:10;;;;;;;4.18;1.20;;;12.60;99.90;;;;;;4984940;28;20268;-65
2023/05/26 03:37:38;;;;;;;1.80;1.25;;;12.50;99.90;;;;;;4990850;28;20245;-65
2023/05/26 03:40:08;;;;;;;2.10;2.00;;;12.50;99.90;;;;;;4989331;28;20217;-65
2023/05/26 03:42:37;;;;;;;2.22;1.45;;;12.50;99.90;;;;;;4977568;28;20230;-65
2023/05/26 03:45:06;;;;;;;1.60;1.50;;;12.60;99.90;;;;;;4985943;28;20248;-63
2023/05/26 03:47:34;;;;;;;1.25;1.13;;;12.60;99.90;;;;;;4988089;28;20206;-63
2023/05/26 03:50:03;;;;;;;1.10;1.00;;;12.60;99.90;;;;;;4952696;28;20204;-63
2023/05/26 03:52:34;;;;;;;1.67;0.95;;;12.50;99.90;;;;;;4954685;28;20289;-63
2023/05/26 03:55:03;;;;;;;1.80;1.25;;;12.50;99.90;;;;;;4951252;28;20227;-64
2023/05/26 03:57:31;;;;;;;1.90;1.30;;;12.50;99.90;;;;;;4952951;28;20203;-64
2023/05/26 04:00:00;;;;;;;1.60;1.50;;;12.40;99.90;;;;;;4952841;28;20287;-64
2023/05/26 04:02:28;;;;;;;1.25;1.10;;;12.40;99.90;;;;;;4949635;28;20234;-64
2023/05/26 04:04:56;;;;;;;1.98;1.73;;;12.50;99.90;;;;;;4954077;28;20682;-63
2023/05/26 04:07:24;;;;;;;1.38;1.27;;;12.50;99.90;;;;;;4946815;28;20219;-63
2023/05/26 04:09:52;;;;;;;2.17;1.40;;;12.30;99.90;;;;;;4954443;28;20227;-64
2023/05/26 04:12:20;;;;;;;0.98;0.73;;;12.30;99.90;;;;;;4953188;28;20274;-64
2023/05/26 04:14:48;;;;;;;1.35;1.25;;;12.20;99.90;;;;;;4952253;28;20270;-63
2023/05/26 04:17:17;;;;;;;3.38;1.27;;;12.00;99.90;;;;;;4950042;28;20208;-64
2023/05/26 04:19:45;;;;;;;1.58;1.30;;;12.00;99.90;;;;;;4953258;28;20737;-63
2023/05/26 04:22:13;;;;;;;1.80;1.10;;;11.90;99.90;;;;;;4950212;28;20697;-64
2023/05/26 04:24:41;;;;;;;1.33;1.23;;;11.90;99.90;;;;;;4949723;28;20207;-63
2023/05/26 04:27:09;;;;;;;1.08;0.98;;;11.80;99.90;;;;;;4952088;28;20203;-63
2023/05/26 04:29:38;;;;;;;1.52;1.42;;;11.70;99.90;;;;;;4947384;28;20282;-63
2023/05/26 04:32:08;;;;;;;1.10;1.00;;;11.70;99.90;;;;;;4939696;28;20212;-63
2023/05/26 04:34:37;;;;;;;1.45;1.23;;;11.80;99.90;;;;;;4950962;28;20243;-63
2023/05/26 04:37:05;;;;;;;1.30;1.20;;;11.70;99.90;;;;;;4947967;28;20219;-63
2023/05/26 04:39:33;;;;;;;2.03;1.83;;;11.80;99.90;;;;;;4948712;28;20223;-63
2023/05/26 04:42:03;;;;;;;1.80;1.00;;;11.90;99.90;;;;;;4948934;28;20203;-63
2023/05/26 04:44:32;;;;;;;1.50;1.35;;;11.90;99.90;;;;;;4952979;28;20318;-63
2023/05/26 04:47:02;;;;;;;1.35;1.10;;;11.90;99.90;;;;;;4947553;28;20708;-63
2023/05/26 04:49:30;;;;;;;2.30;1.40;;;12.10;99.90;;;;;;4981203;28;20242;-63
2023/05/26 04:52:01;;;;;;;1.58;1.45;;;12.10;99.90;;;;;;4987715;28;20209;-63
2023/05/26 04:54:29;;;;;;;1.10;1.00;;;12.30;99.90;;;;;;4989011;28;20646;-63
2023/05/26 04:56:57;;;;;;;1.40;1.10;;;12.30;99.90;;;;;;4989705;28;20228;-63
2023/05/26 04:59:26;;;;;;;1.27;1.10;;;12.30;99.90;;;;;;4990905;28;20217;-63
2023/05/26 05:01:54;;;;;;;3.30;1.55;;;12.40;99.90;;;;;;4988201;28;20217;-63
2023/05/26 05:04:22;;;;;;;1.45;1.10;;;12.40;99.90;;;;;;4988927;28;20198;-63
2023/05/26 05:06:50;;;;;;;2.17;0.80;;;12.50;99.90;;;;;;4989217;28;20205;-63
2023/05/26 05:09:19;;;;;;;1.40;1.30;;;12.60;99.90;;;;;;4986755;28;20226;-63
2023/05/26 05:11:47;;;;;;;1.40;1.30;;;12.60;99.90;;;;;;4990935;28;20202;-63
2023/05/26 05:14:15;;;;;;;1.08;0.98;;;12.80;99.90;;;;;;4984943;28;20206;-63
2023/05/26 05:16:46;;;;;;;1.08;0.95;;;13.10;99.90;;;;;;4989583;28;20206;-63
2023/05/26 05:19:14;;;;;;;1.27;1.20;;;13.20;99.90;;;;;;4990057;28;20613;-64
2023/05/26 05:21:42;;;;;;;1.30;1.20;;;13.30;99.90;;;;;;4988958;28;20210;-63
2023/05/26 05:24:10;;;;;;;1.30;1.20;;;13.30;99.90;;;;;;4991807;28;20206;-63
2023/05/26 05:26:39;;;;;;;1.30;1.20;;;13.30;99.90;;;;;;4983013;28;20206;-63
2023/05/26 05:29:08;;;;;;;1.38;1.30;;;13.40;99.90;;;;;;4979605;28;20234;-63
2023/05/26 05:31:36;;;;;;;2.28;1.10;;;13.40;99.90;;;;;;4992441;28;20206;-63
2023/05/26 05:34:04;;;;;;;1.05;0.95;;;13.50;99.90;;;;;;4989484;28;20210;-63
2023/05/26 05:36:33;;;;;;;4.38;1.35;;;13.50;99.90;;;;;;4988815;28;20230;-63
2023/05/26 05:39:01;;;;;;;1.52;1.40;;;13.60;99.90;;;;;;4988195;28;20317;-62
2023/05/26 05:41:29;;;;;;;1.83;1.60;;;13.60;99.90;;;;;;4986412;28;20210;-63
2023/05/26 05:43:58;;;;;;;1.10;1.00;;;13.70;99.90;;;;;;4987867;28;20216;-63
2023/05/26 05:46:27;;;;;;;1.38;1.15;;;13.70;99.90;;;;;;4986693;28;20202;-63
2023/05/26 05:48:55;;;;;;;1.15;1.10;;;13.90;99.90;;;;;;4985218;28;20247;-63
2023/05/26 05:51:23;;;;;;;1.38;1.27;;;13.90;99.90;;;;;;4979190;28;20760;-65
2023/05/26 05:53:51;;;;;;;1.95;0.98;;;14.00;99.90;;;;;;4986012;28;20218;-62
2023/05/26 05:56:19;;;;;;;1.60;1.30;;;14.10;99.90;;;;;;4977096;28;20240;-62
2023/05/26 05:58:47;;;;;;;1.20;0.90;;;14.30;99.90;;;;;;4974326;28;20219;-62
2023/05/26 06:01:16;;;;;;;1.42;1.20;;;14.40;99.90;;;;;;4976413;28;20214;-62
2023/05/26 06:03:44;;;;;;;1.20;1.10;;;14.50;99.90;;;;;;4991592;28;20209;-62
2023/05/26 06:06:12;;;;;;;2.58;0.90;;;14.60;99.90;;;;;;4979831;28;20207;-62
2023/05/26 06:08:40;;;;;;;2.15;0.93;;;14.70;99.90;;;;;;4979048;28;20237;-62
2023/05/26 06:11:08;;;;;;;1.25;1.00;;;14.70;99.90;;;;;;4983848;28;20202;-63
2023/05/26 06:13:36;;;;;;;1.10;0.82;;;14.90;99.90;;;;;;4974925;28;20210;-62
2023/05/26 06:16:04;;;;;;;1.08;0.82;;;15.10;99.90;;;;;;4990338;28;20226;-62
2023/05/26 06:18:35;;;;;;;1.40;0.90;;;15.20;99.90;;;;;;4973666;28;20713;-62
2023/05/26 06:21:03;;;;;;;1.75;1.45;;;15.30;99.90;;;;;;4986626;28;20207;-62
2023/05/26 06:23:31;;;;;;;0.98;0.90;;;15.30;99.90;;;;;;4987069;28;20202;-62
2023/05/26 06:25:59;;;;;;;1.52;1.40;;;15.30;99.90;;;;;;4989781;28;20260;-62
2023/05/26 06:28:27;;;;;;;1.00;0.80;;;15.40;99.90;;;;;;4972452;28;20231;-62
2023/05/26 06:30:55;;;;;;;1.35;1.23;;;15.50;99.90;;;;;;4980036;28;20829;-62
2023/05/26 06:33:22;;;;;;;0.88;0.75;;;15.60;99.90;;;;;;4988063;28;20634;-62
2023/05/26 06:35:52;;;;;;;1.38;1.27;;;15.50;99.90;;;;;;4980391;28;20234;-62
2023/05/26 06:38:19;;;;;;;1.38;0.90;;;15.60;99.90;;;;;;4980210;28;20230;-62
2023/05/26 06:40:47;;;;;;;1.88;0.85;;;15.70;99.90;;;;;;4986337;28;20609;-62
2023/05/26 06:43:15;;;;;;;1.48;1.38;;;15.90;99.90;;;;;;4980811;28;20211;-62
2023/05/26 06:45:43;;;;;;;0.80;0.60;;;16.00;99.90;;;;;;4978112;28;20202;-62
2023/05/26 06:48:11;;;;;;;1.05;0.98;;;16.10;99.90;;;;;;4975694;28;20246;-62
2023/05/26 06:50:39;;;;;;;1.60;1.30;;;16.20;99.90;;;;;;4985491;28;20321;-62
2023/05/26 06:53:08;;;;;;;0.70;0.70;;;16.10;99.90;;;;;;4973841;28;20214;-63
2023/05/26 06:55:36;;;;;;;2.72;1.45;;;16.10;99.90;;;;;;4985229;28;20276;-62
2023/05/26 06:58:04;;;;;;;2.47;1.60;;;16.20;99.90;;;;;;4983280;28;20227;-62
2023/05/26 07:00:32;;;;;;;0.75;0.75;;;16.20;99.90;;;;;;4980506;28;20211;-62
2023/05/26 07:03:00;;;;;;;0.95;0.77;;;16.30;99.90;;;;;;4987798;28;20624;-62
2023/05/26 07:05:28;;;;;;;2.05;1.45;;;16.50;99.90;;;;;;4979526;28;20609;-62
2023/05/26 07:07:56;;;;;;;1.45;1.35;;;16.60;99.90;;;;;;4979483;28;20233;-63
2023/05/26 07:10:25;;;;;;;0.95;0.80;;;16.70;99.90;;;;;;4983295;28;20539;-63
2023/05/26 07:12:53;;;;;;;0.75;0.75;;;16.70;99.90;;;;;;4991155;28;20217;-62
2023/05/26 07:15:21;;;;;;;0.80;0.70;;;16.80;99.90;;;;;;4990805;28;20217;-62
2023/05/26 07:17:49;;;;;;;1.00;0.93;;;16.80;99.90;;;;;;4979330;28;20234;-62
2023/05/26 07:20:17;;;;;;;0.68;0.68;;;17.00;99.90;;;;;;4971689;28;20206;-62
2023/05/26 07:22:46;;;;;;;0.70;0.70;;;17.20;99.90;;;;;;4980108;28;20203;-63
2023/05/26 07:25:14;;;;;;;0.60;0.57;;;17.30;99.90;;;;;;4979510;28;20210;-62
2023/05/26 07:27:43;;;;;;;1.10;1.00;;;17.20;99.90;;;;;;4979951;28;20253;-63
2023/05/26 07:30:12;;;;;;;0.80;0.60;;;17.30;99.90;;;;;;4979821;28;20211;-62
2023/05/26 07:32:40;;;;;;;0.93;0.93;;;17.30;99.90;;;;;;4976964;28;20252;-62
2023/05/26 07:35:08;;;;;;;1.45;1.10;;;17.50;99.90;;;;;;4989979;28;20212;-62
2023/05/26 07:37:36;;;;;;;0.70;0.70;;;17.40;99.90;;;;;;4977911;28;20277;-62
2023/05/26 07:40:06;;;;;;;0.70;0.65;;;17.40;99.90;;;;;;4979699;28;20217;-62
2023/05/26 07:42:34;;;;;;;0.60;0.55;;;17.30;99.90;;;;;;4983931;28;20205;-62
2023/05/26 07:45:04;;;;;;;0.80;0.80;;;17.40;99.90;;;;;;4982673;28;20214;-62
2023/05/26 07:47:33;;;;;;;1.00;0.60;;;17.60;99.90;;;;;;4974273;28;20206;-62
2023/05/26 07:50:01;;;;;;;0.68;0.60;;;17.70;99.90;;;;;;4971521;28;20220;-63
2023/05/26 07:52:29;;;;;;;0.95;0.80;;;17.90;99.90;;;;;;4978914;28;20626;-63
2023/05/26 07:54:58;;;;;;;0.65;0.55;;;17.90;99.90;;;;;;4971606;28;20214;-63
2023/05/26 07:57:26;;;;;;;0.70;0.70;;;17.90;99.90;;;;;;4987535;28;20616;-63
2023/05/26 07:59:57;;;;;;;0.60;0.50;;;17.80;99.90;;;;;;4987056;28;20669;-63
2023/05/26 08:02:27;;;;;;;0.70;0.50;;;17.90;99.90;;;;;;4971823;28;20203;-62
2023/05/26 08:04:55;;;;;;;0.60;0.57;;;17.80;99.90;;;;;;4988605;28;20891;-63
2023/05/26 08:07:23;;;;;;;6.80;1.02;;;17.90;99.90;;;;;;4978180;28;20571;-62
2023/05/26 08:09:52;;;;;;;1.58;1.27;;;18.20;99.90;;;;;;4987864;28;20317;-63
2023/05/26 08:12:20;;;;;;;2.38;1.42;;;18.40;99.90;;;;;;4990249;28;20202;-63
2023/05/26 08:14:48;;;;;;;0.60;0.57;;;18.30;99.90;;;;;;4980533;28;20206;-62
2023/05/26 08:17:16;;;;;;;0.60;0.50;;;18.40;99.90;;;;;;4987403;28;20234;-63
2023/05/26 08:19:46;;;;;;;1.20;0.90;;;18.60;99.90;;;;;;4974679;28;20226;-63
2023/05/26 08:22:13;;;;;;;1.00;0.70;;;18.80;99.90;;;;;;4982746;28;20214;-63
2023/05/26 08:24:41;;;;;;;0.60;0.60;;;18.90;99.90;;;;;;4987666;28;20201;-63
2023/05/26 08:27:10;;;;;;;1.10;0.95;;;18.80;99.90;;;;;;4982803;28;20217;-63
2023/05/26 08:29:38;;;;;;;1.23;0.60;;;18.90;99.90;;;;;;4981394;28;20701;-62
2023/05/26 08:32:06;;;;;;;2.58;1.52;;;19.10;99.90;;;;;;4974438;28;20281;-63
2023/05/26 08:34:33;;;;;;;2.97;2.65;;;19.30;99.90;;;;;;4982273;28;20202;-62
2023/05/26 08:37:03;;;;;;;1.60;1.40;;;19.50;99.90;;;;;;4974501;28;20230;-63
2023/05/26 08:39:31;;;;;;;1.33;1.10;;;19.60;99.90;;;;;;4974365;28;20728;-63
2023/05/26 08:42:03;;;;;;;1.38;1.00;;;19.70;99.90;;;;;;4981774;28;20268;-63
2023/05/26 08:44:31;;;;;;;0.70;0.60;;;19.70;99.90;;;;;;4985481;28;20209;-63
2023/05/26 08:47:01;;;;;;;1.23;0.60;;;19.80;99.90;;;;;;4988326;28;20223;-62
2023/05/26 08:49:36;;;;;;;1.25;1.15;;;19.70;99.90;;;;;;5035790;23;20250;-73
2023/05/26 08:52:10;;;;;;;0.70;0.70;;;19.60;99.90;;;;;;4985009;28;20217;-73
2023/05/26 08:54:38;;;;;;;3.33;0.68;;;19.80;99.90;;;;;;4983583;28;20257;-71
2023/05/26 08:57:07;;;;;;;0.70;0.60;;;20.00;99.90;;;;;;4993353;28;20704;-73
2023/05/26 08:59:36;;;;;;;0.93;0.60;;;20.20;99.90;;;;;;4982103;28;20227;-73
2023/05/26 09:02:04;;;;;;;0.80;0.80;;;20.40;99.90;;;;;;4974053;28;20559;-74
2023/05/26 09:04:32;;;;;;;0.80;0.70;;;20.30;99.90;;;;;;4973563;28;20214;-72
2023/05/26 09:07:00;;;;;;;0.80;0.60;;;20.30;99.90;;;;;;4973911;28;20203;-72
2023/05/26 09:09:50;;;;;;;0.95;0.85;;;20.60;99.90;;;;;;4973667;28;20245;-73
2023/05/26 09:12:18;;;;;;;1.25;0.75;;;20.70;99.90;;;;;;4973727;28;20214;-73
2023/05/26 09:14:46;;;;;;;0.60;0.60;;;20.70;99.90;;;;;;4973299;28;20666;-72
2023/05/26 09:17:14;;;;;;;0.68;0.60;;;20.70;99.90;;;;;;4972631;28;20233;-73
2023/05/26 09:19:43;;;;;;;0.60;0.50;;;20.90;99.90;;;;;;4973848;28;20689;-73
2023/05/26 09:22:11;;;;;;;0.70;0.55;;;21.00;99.90;;;;;;4973579;28;20578;-71
2023/05/26 09:24:47;;;;;;;2.65;1.13;;;21.10;99.90;;;;;;4972848;28;20218;-72
2023/05/26 09:27:23;;;;;;;0.70;0.70;;;21.50;99.90;;;;;;4973733;28;20198;-73
2023/05/26 09:29:53;;;;;;;1.45;0.80;;;21.50;99.90;;;;;;4973225;28;20245;-73
2023/05/26 09:32:25;;;;;;;0.68;0.68;;;21.70;99.90;;;;;;4971790;28;20212;-74
2023/05/26 09:34:55;;;;;;;0.77;0.65;;;21.70;99.90;;;;;;4972906;28;20218;-73
2023/05/26 09:37:28;;;;;;;0.60;0.50;;;21.60;99.90;;;;;;4972792;28;20223;-72
2023/05/26 09:39:56;;;;;;;0.63;0.50;;;21.50;99.90;;;;;;4972856;28;20278;-72
2023/05/26 09:42:25;;;;;;;0.70;0.50;;;21.70;99.90;;;;;;4973047;28;20242;-73
2023/05/26 09:44:53;;;;;;;2.35;1.35;;;21.90;99.90;;;;;;4972970;28;20207;-73
2023/05/26 09:47:22;;;;;;;0.90;0.70;;;21.70;99.90;;;;;;4972743;28;20203;-73
2023/05/26 09:49:52;;;;;;;1.15;0.55;;;21.90;99.90;;;;;;4972779;28;20711;-72
2023/05/26 09:52:20;;;;;;;1.15;1.05;;;22.10;99.90;;;;;;4972592;28;20204;-72
2023/05/26 09:54:48;;;;;;;1.02;0.60;;;22.30;99.90;;;;;;4972374;28;20199;-73
2023/05/26 09:57:17;;;;;;;1.23;0.57;;;22.50;99.90;;;;;;4972711;28;20227;-72
2023/05/26 09:59:53;;;;;;;0.60;0.60;;;22.50;99.90;;;;;;4972521;28;20222;-73
2023/05/26 10:02:22;;;;;;;0.77;0.73;;;22.50;99.90;;;;;;4972602;28;20261;-72
2023/05/26 10:04:51;;;;;;;1.17;0.85;;;22.40;99.90;;;;;;4972451;28;20212;-74
2023/05/26 10:07:20;;;;;;;1.83;1.13;;;22.50;99.90;;;;;;4972492;28;20199;-72
2023/05/26 10:09:51;;;;;;;0.60;0.50;;;22.60;99.90;;;;;;4972733;28;20706;-72
2023/05/26 10:12:26;;;;;;;2.22;1.23;;;22.90;99.90;;;;;;4972656;28;20215;-72
2023/05/26 10:14:56;;;;;;;0.70;0.70;;;22.90;99.90;;;;;;4972798;28;20958;-73
2023/05/26 10:17:25;;;;;;;2.00;1.80;;;23.30;99.90;;;;;;4972475;28;20228;-73
2023/05/26 10:19:55;;;;;;;0.70;0.60;;;23.20;99.90;;;;;;4972576;28;20228;-72
2023/05/26 10:22:29;;;;;;;1.25;0.60;;;23.20;99.80;;;;;;4972156;28;20303;-73
2023/05/26 10:25:02;;;;;;;0.60;0.50;;;22.80;99.00;;;;;;4980349;28;20299;-72
2023/05/26 10:27:37;;;;;;;0.93;0.80;;;22.90;99.00;;;;;;4971923;28;20212;-72
2023/05/26 10:30:10;;;;;;;2.40;0.85;;;22.90;98.60;;;;;;4972501;28;20749;-72
2023/05/26 10:32:49;;;;;;;1.70;0.85;;;23.30;99.50;;;;;;4972198;28;20211;-72
2023/05/26 10:35:22;;;;;;;0.80;0.70;;;23.40;99.60;;;;;;4971864;28;20203;-74
2023/05/26 10:37:50;;;;;;;0.85;0.60;;;23.40;99.70;;;;;;4972514;28;20733;-73
2023/05/26 10:40:29;;;;;;;0.70;0.50;;;23.60;99.30;;;;;;4972042;28;20746;-72
2023/05/26 10:43:03;;;;;;;1.10;0.65;;;23.40;97.00;;;;;;4972320;28;20741;-73
2023/05/26 10:45:33;;;;;;;0.80;0.63;;;23.40;98.00;;;;;;4971944;28;20543;-73
2023/05/26 10:48:08;;;;;;;0.98;0.70;;;23.30;97.90;;;;;;4972327;28;20209;-73
2023/05/26 10:51:04;;;;;;;1.00;0.90;;;23.40;98.40;;;;;;4971995;28;20236;-73
2023/05/26 10:53:34;;;;;;;0.75;0.60;;;23.80;99.50;;;;;;4971466;28;20219;-72
2023/05/26 10:56:04;;;;;;;1.00;0.93;;;23.80;99.70;;;;;;4972096;28;20621;-73
2023/05/26 10:58:37;;;;;;;1.48;1.38;;;24.30;98.90;;;;;;4971935;28;20239;-74
2023/05/26 11:01:08;;;;;;;0.60;0.52;;;24.70;98.40;;;;;;4972083;28;20286;-74
2023/05/26 11:03:38;;;;;;;0.80;0.70;;;24.60;98.00;;;;;;4971673;28;20263;-73
2023/05/26 11:06:06;;;;;;;1.05;0.60;;;24.10;97.30;;;;;;4971726;28;20878;-73
2023/05/26 11:08:39;;;;;;;1.38;0.80;;;24.10;98.00;;;;;;4971862;28;20271;-74
2023/05/26 11:11:09;;;;;;;0.60;0.60;;;24.30;98.30;;;;;;4972200;28;20216;-74
2023/05/26 11:14:00;;;;;;;0.73;0.50;;;24.10;97.70;;;;;;4971783;28;20212;-74
2023/05/26 11:16:35;;;;;;;0.70;0.57;;;23.70;98.30;;;;;;4971665;28;20667;-73
2023/05/26 11:19:05;;;;;;;0.60;0.50;;;23.90;97.80;;;;;;4971786;28;20263;-74
2023/05/26 11:21:34;;;;;;;1.15;0.82;;;23.70;97.40;;;;;;4971709;28;20216;-73
2023/05/26 11:24:04;;;;;;;0.75;0.75;;;23.60;98.10;;;;;;4971867;28;20219;-73
2023/05/26 11:26:33;;;;;;;3.85;0.80;;;23.80;97.90;;;;;;4979690;28;20218;-72
2023/05/26 11:29:04;;;;;;;0.70;0.40;;;24.20;97.90;;;;;;4971862;28;20241;-74
2023/05/26 11:31:34;;;;;;;0.60;0.50;;;24.50;98.20;;;;;;4972669;28;20223;-73
2023/05/26 11:34:03;;;;;;;0.63;0.50;;;24.70;98.10;;;;;;4979791;28;20214;-72
2023/05/26 11:36:30;;;;;;;0.65;0.50;;;24.80;95.70;;;;;;4971241;28;20210;-73
2023/05/26 11:39:00;;;;;;;0.80;0.63;;;24.40;96.60;;;;;;4972460;28;20232;-73
2023/05/26 11:41:29;;;;;;;1.20;1.00;;;24.10;96.10;;;;;;4975478;28;20225;-73
2023/05/26 11:43:58;;;;;;;0.75;0.60;;;24.20;96.70;;;;;;4975304;28;20296;-73
2023/05/26 11:46:29;;;;;;;0.70;0.63;;;24.30;97.00;;;;;;4975138;28;20259;-73
2023/05/26 11:49:01;;;;;;;1.17;0.88;;;24.10;97.20;;;;;;4975255;28;20584;-73
2023/05/26 11:51:30;;;;;;;0.80;0.70;;;23.90;96.30;;;;;;4975070;28;20297;-73
2023/05/26 11:54:00;;;;;;;0.60;0.40;;;24.20;96.50;;;;;;4974682;28;20212;-73
2023/05/26 11:56:35;;;;;;;0.60;0.40;;;24.40;95.70;;;;;;4974916;28;20746;-73
2023/05/26 11:59:04;;;;;;;0.82;0.60;;;24.70;96.00;;;;;;4975221;28;20264;-73
2023/05/26 12:01:33;;;;;;;0.98;0.50;;;25.20;96.30;;;;;;4974832;28;20215;-73
2023/05/26 12:04:05;;;;;;;1.90;0.75;;;25.40;94.70;;;;;;4974702;28;20700;-73
2023/05/26 12:06:39;;;;;;;1.73;0.75;;;25.40;94.70;;;;;;4974467;28;20207;-72
2023/05/26 12:09:11;;;;;;;0.70;0.50;;;25.10;95.10;;;;;;4974990;28;20640;-71
2023/05/26 12:11:42;;;;;;;0.77;0.65;;;25.00;94.10;;;;;;4974928;28;20257;-74
2023/05/26 12:14:12;;;;;;;1.38;1.27;;;24.20;95.10;;;;;;4974783;28;20303;-74
2023/05/26 12:16:43;;;;;;;0.60;0.50;;;23.80;96.20;;;;;;4974589;28;20617;-72
2023/05/26 12:19:14;;;;;;;0.98;0.98;;;23.60;95.60;;;;;;4974740;28;20233;-73
2023/05/26 12:21:43;;;;;;;1.42;0.73;;;24.10;95.40;;;;;;4968843;28;20587;-73
2023/05/26 12:24:12;;;;;;;0.70;0.45;;;24.70;96.00;;;;;;4974632;28;20209;-73
2023/05/26 12:26:40;;;;;;;0.88;0.60;;;25.00;95.80;;;;;;4974323;28;20260;-72
2023/05/26 12:29:13;;;;;;;1.25;0.60;;;24.90;95.20;;;;;;4974308;28;20259;-73
2023/05/26 12:31:44;;;;;;;0.60;0.50;;;25.40;94.30;;;;;;4974646;28;20657;-73
2023/05/26 12:34:14;;;;;;;1.50;0.80;;;25.10;93.70;;;;;;4974316;28;20698;-73
2023/05/26 12:36:42;;;;;;;1.02;0.93;;;25.10;94.30;;;;;;4974032;28;20215;-73
2023/05/26 12:39:13;;;;;;;1.02;0.73;;;25.10;93.90;;;;;;4974483;28;20236;-73
2023/05/26 12:41:42;;;;;;;0.60;0.40;;;25.10;93.50;;;;;;4974216;28;20223;-73
2023/05/26 12:44:10;;;;;;;0.60;0.43;;;24.90;93.00;;;;;;4974216;28;20217;-73
2023/05/26 12:46:40;;;;;;;1.13;0.60;;;24.70;92.40;;;;;;4973958;28;20224;-73
2023/05/26 12:49:08;;;;;;;0.82;0.60;;;24.80;93.30;;;;;;4974092;28;20358;-73
2023/05/26 12:51:40;;;;;;;1.10;0.60;;;24.80;92.30;;;;;;4973527;28;20703;-73
2023/05/26 12:54:09;;;;;;;0.60;0.45;;;24.70;92.70;;;;;;4974206;28;20275;-73
2023/05/26 12:56:38;;;;;;;2.95;0.60;;;25.20;93.10;;;;;;4973929;28;20637;-73
2023/05/26 12:59:06;;;;;;;0.70;0.50;;;25.30;93.60;;;;;;4973949;28;20691;-73